createdAt,value
2023-01-26T00:01:35.195Z,17.67
2023-01-26T00:06:51.270Z,17.70
2023-01-26T00:09:38.833Z,16.27
2023-01-26T00:12:08.203Z,15.70
2023-01-26T00:17:38.572Z,15.00
2023-01-26T00:20:08.313Z,14.27
2023-01-26T00:22:37.623Z,14.43
2023-01-26T00:25:07.103Z,13.70
2023-01-26T00:27:36.389Z,13.67
2023-01-26T00:30:07.454Z,13.47
2023-01-26T00:32:37.269Z,14.30
2023-01-26T00:35:06.878Z,14.47
2023-01-26T00:37:38.666Z,14.63
2023-01-26T00:40:08.299Z,14.73
2023-01-26T00:42:56.216Z,14.47
2023-01-26T00:45:28.527Z,14.40
2023-01-26T00:47:57.723Z,14.10
2023-01-26T00:50:26.972Z,14.13
2023-01-26T00:52:56.109Z,15.60
2023-01-26T00:55:32.559Z,16.60
2023-01-26T00:58:02.616Z,17.47
2023-01-26T01:00:34.590Z,17.47
2023-01-26T01:03:03.978Z,17.47
2023-01-26T01:05:34.108Z,16.97
2023-01-26T01:08:03.248Z,17.60
2023-01-26T01:10:51.002Z,17.10
2023-01-26T01:13:20.164Z,16.87
2023-01-26T01:15:51.172Z,17.80
2023-01-26T01:21:26.519Z,16.63
2023-01-26T01:26:42.476Z,16.17
2023-01-26T01:32:02.812Z,16.20
2023-01-26T01:34:32.076Z,16.70
2023-01-26T01:39:48.176Z,16.67
2023-01-26T01:42:18.216Z,16.67
2023-01-26T01:44:49.081Z,17.27
2023-01-26T01:47:22.048Z,16.83
2023-01-26T01:49:55.396Z,16.10
2023-01-26T01:52:26.440Z,16.90
2023-01-26T01:54:58.815Z,17.03
2023-01-26T01:57:30.744Z,17.07
2023-01-26T02:00:10.319Z,16.77
2023-01-26T02:02:45.185Z,17.43
2023-01-26T02:05:19.704Z,18.23
2023-01-26T02:08:09.945Z,17.03
2023-01-26T02:13:26.813Z,16.97
2023-01-26T02:15:56.533Z,17.90
2023-01-26T02:18:46.313Z,18.03
2023-01-26T02:21:18.132Z,17.60
2023-01-26T02:23:52.525Z,17.10
2023-01-26T02:26:24.981Z,17.00
2023-01-26T02:28:54.764Z,17.13
2023-01-26T02:31:25.083Z,16.83
2023-01-26T02:33:55.321Z,17.90
2023-01-26T02:36:25.592Z,15.20
2023-01-26T02:39:01.079Z,15.57
2023-01-26T02:41:49.092Z,15.93
2023-01-26T02:44:18.485Z,15.27
2023-01-26T02:46:47.728Z,14.00
2023-01-26T02:49:36.088Z,15.30
2023-01-26T02:52:26.074Z,14.70
2023-01-26T02:55:25.407Z,13.87
2023-01-26T02:57:57.598Z,14.50
2023-01-26T03:00:27.538Z,14.30
2023-01-26T03:02:59.096Z,13.77
2023-01-26T03:05:28.629Z,14.60
2023-01-26T03:07:58.281Z,14.53
2023-01-26T03:10:34.222Z,14.40
2023-01-26T03:13:05.024Z,13.57
2023-01-26T03:15:48.270Z,13.40
2023-01-26T03:18:36.638Z,13.07
2023-01-26T03:24:31.310Z,13.63
2023-01-26T03:27:19.935Z,14.43
2023-01-26T03:30:10.176Z,13.57
2023-01-26T03:32:39.488Z,13.70
2023-01-26T03:35:32.816Z,12.97
2023-01-26T03:38:20.452Z,14.33
2023-01-26T03:41:10.330Z,13.33
2023-01-26T03:43:57.382Z,13.90
2023-01-26T03:46:45.514Z,13.27
2023-01-26T03:49:32.504Z,13.33
2023-01-26T03:52:19.539Z,13.30
2023-01-26T03:55:25.166Z,13.70
2023-01-26T03:57:54.505Z,12.97
2023-01-26T04:00:42.453Z,13.13
2023-01-26T04:03:30.429Z,12.90
2023-01-26T04:06:18.043Z,12.53
2023-01-26T04:09:09.097Z,12.80
2023-01-26T04:11:38.406Z,13.77
2023-01-26T04:14:25.153Z,14.93
2023-01-26T04:17:12.305Z,15.03
2023-01-26T04:20:00.405Z,15.03
2023-01-26T04:22:29.893Z,14.97
2023-01-26T04:25:20.009Z,15.00
2023-01-26T04:27:49.505Z,14.37
2023-01-26T04:30:19.867Z,14.20
2023-01-26T04:32:49.135Z,13.50
2023-01-26T04:35:20.285Z,13.17
2023-01-26T04:38:08.992Z,12.97
2023-01-26T04:40:39.174Z,13.17
2023-01-26T04:43:08.485Z,12.90
2023-01-26T04:45:38.681Z,12.53
2023-01-26T04:50:59.736Z,12.30
2023-01-26T04:53:29.243Z,12.30
2023-01-26T04:56:16.715Z,12.90
2023-01-26T04:58:46.585Z,11.17
2023-01-26T05:01:16.161Z,10.87
2023-01-26T05:03:45.656Z,12.87
2023-01-26T05:06:33.696Z,11.57
2023-01-26T05:09:04.371Z,11.53
2023-01-26T05:11:35.752Z,11.70
2023-01-26T05:14:17.462Z,12.33
2023-01-26T05:17:09.679Z,11.37
2023-01-26T05:19:50.744Z,11.17
2023-01-26T05:22:32.458Z,12.80
2023-01-26T05:25:35.439Z,12.23
2023-01-26T05:28:09.291Z,12.63
2023-01-26T05:30:38.430Z,11.87
2023-01-26T05:33:26.308Z,12.37
2023-01-26T05:36:14.063Z,12.80
2023-01-26T05:38:44.382Z,12.53
2023-01-26T05:41:15.545Z,11.83
2023-01-26T05:44:13.745Z,11.10
2023-01-26T05:46:50.953Z,10.40
2023-01-26T05:49:20.446Z,10.73
2023-01-26T05:51:49.956Z,11.37
2023-01-26T05:54:19.275Z,11.20
2023-01-26T05:56:51.161Z,11.50
2023-01-26T05:59:20.416Z,11.47
2023-01-26T06:01:49.746Z,11.27
2023-01-26T06:04:19.720Z,12.70
2023-01-26T06:07:00.133Z,12.50
2023-01-26T06:09:34.715Z,11.07
2023-01-26T06:12:08.640Z,11.30
2023-01-26T06:14:57.261Z,10.90
2023-01-26T06:17:33.937Z,11.87
2023-01-26T06:23:02.456Z,12.83
2023-01-26T06:28:41.555Z,12.63
2023-01-26T06:31:12.214Z,11.83
2023-01-26T06:33:59.845Z,11.70
2023-01-26T06:36:29.835Z,11.07
2023-01-26T06:39:00.967Z,11.50
2023-01-26T06:41:30.635Z,11.03
2023-01-26T06:44:01.379Z,11.97
2023-01-26T06:46:31.604Z,11.03
2023-01-26T06:49:19.467Z,11.27
2023-01-26T06:51:50.645Z,11.60
2023-01-26T06:54:38.325Z,11.23
2023-01-26T06:57:23.447Z,11.87
2023-01-26T07:00:22.294Z,11.53
2023-01-26T07:03:06.990Z,12.20
2023-01-26T07:05:36.195Z,15.77
2023-01-26T07:08:08.764Z,16.17
2023-01-26T07:10:37.912Z,14.53
2023-01-26T07:13:07.311Z,13.20
2023-01-26T07:15:37.814Z,13.07
2023-01-26T07:18:06.966Z,12.30
2023-01-26T07:20:36.142Z,13.53
2023-01-26T07:23:05.275Z,14.80
2023-01-26T07:28:20.989Z,15.33
2023-01-26T07:30:51.644Z,13.87
2023-01-26T07:33:21.050Z,13.57
2023-01-26T07:36:08.661Z,13.63
2023-01-26T07:38:37.784Z,14.20
2023-01-26T07:41:07.855Z,12.97
2023-01-26T07:43:37.222Z,12.50
2023-01-26T07:46:12.490Z,12.00
2023-01-26T07:48:41.994Z,12.27
2023-01-26T07:51:13.412Z,13.70
2023-01-26T07:53:43.782Z,15.17
2023-01-26T07:56:31.363Z,16.40
2023-01-26T07:59:18.981Z,18.20
2023-01-26T08:01:50.941Z,15.97
2023-01-26T08:04:20.531Z,12.53
2023-01-26T08:06:49.962Z,12.73
2023-01-26T08:09:19.315Z,12.00
2023-01-26T08:11:48.496Z,11.80
2023-01-26T08:14:17.847Z,12.00
2023-01-26T08:17:05.614Z,11.87
2023-01-26T08:19:36.275Z,11.33
2023-01-26T08:22:05.479Z,11.63
2023-01-26T08:24:34.706Z,11.07
2023-01-26T08:27:03.834Z,11.43
2023-01-26T08:29:32.972Z,11.33
2023-01-26T08:32:20.469Z,10.73
2023-01-26T08:34:51.087Z,12.13
2023-01-26T08:37:39.189Z,11.33
2023-01-26T08:40:09.516Z,11.80
2023-01-26T08:42:38.775Z,11.33
2023-01-26T08:45:08.509Z,10.80
2023-01-26T08:47:56.075Z,10.30
2023-01-26T08:50:27.183Z,12.57
2023-01-26T08:52:58.696Z,12.17
2023-01-26T08:55:28.783Z,11.80
2023-01-26T08:57:57.880Z,11.77
2023-01-26T09:00:27.346Z,11.50
2023-01-26T09:03:01.435Z,11.40
2023-01-26T09:05:50.536Z,11.23
2023-01-26T09:08:19.723Z,11.50
2023-01-26T09:10:48.867Z,12.50
2023-01-26T09:13:18.087Z,11.30
2023-01-26T09:15:47.275Z,10.97
2023-01-26T09:18:34.704Z,10.70
2023-01-26T09:21:09.051Z,10.90
2023-01-26T09:23:39.045Z,10.43
2023-01-26T09:26:08.117Z,10.47
2023-01-26T09:28:55.855Z,10.30
2023-01-26T09:31:25.230Z,10.80
2023-01-26T09:33:54.532Z,10.63
2023-01-26T09:36:25.181Z,10.60
2023-01-26T09:38:54.380Z,9.73
2023-01-26T09:41:45.720Z,9.43
2023-01-26T09:47:23.139Z,9.13
2023-01-26T09:49:57.943Z,9.40
2023-01-26T09:52:34.062Z,10.53
2023-01-26T09:55:04.979Z,27.73
2023-01-26T09:57:36.513Z,19.33
2023-01-26T10:00:09.563Z,10.03
2023-01-26T10:02:44.640Z,10.90
2023-01-26T10:05:17.096Z,9.40
2023-01-26T10:07:48.711Z,9.23
2023-01-26T10:10:18.467Z,8.47
2023-01-26T10:13:05.936Z,9.20
2023-01-26T10:15:39.302Z,9.67
2023-01-26T10:21:14.439Z,12.40
2023-01-26T10:23:48.962Z,11.23
2023-01-26T10:26:19.282Z,11.50
2023-01-26T10:28:49.278Z,8.50
2023-01-26T10:34:12.696Z,9.33
2023-01-26T10:36:42.649Z,8.87
2023-01-26T10:39:15.557Z,8.90
2023-01-26T10:41:58.446Z,8.50
2023-01-26T10:44:31.955Z,8.40
2023-01-26T10:47:05.489Z,9.30
2023-01-26T10:49:34.919Z,8.70
2023-01-26T10:52:11.262Z,8.60
2023-01-26T10:54:44.065Z,9.07
2023-01-26T10:57:32.774Z,8.33
2023-01-26T11:00:25.733Z,8.37
2023-01-26T11:02:55.991Z,9.07
2023-01-26T11:08:34.623Z,8.27
2023-01-26T11:11:07.172Z,8.50
2023-01-26T11:14:14.098Z,8.73
2023-01-26T11:16:44.204Z,9.13
2023-01-26T11:22:07.575Z,11.37
2023-01-26T11:24:42.535Z,9.23
2023-01-26T11:30:20.742Z,9.30
2023-01-26T11:32:54.209Z,9.40
2023-01-26T11:35:46.886Z,9.03
2023-01-26T11:38:24.422Z,8.90
2023-01-26T11:40:58.513Z,8.40
2023-01-26T11:43:34.778Z,8.60
2023-01-26T11:46:08.712Z,8.57
2023-01-26T11:49:04.292Z,9.40
2023-01-26T11:51:40.216Z,8.90
2023-01-26T11:54:14.975Z,9.27
2023-01-26T11:56:51.324Z,8.43
2023-01-26T11:59:24.420Z,8.67
2023-01-26T12:01:56.317Z,8.43
2023-01-26T12:04:25.823Z,9.50
2023-01-26T12:07:13.438Z,9.17
2023-01-26T12:09:45.623Z,9.23
2023-01-26T12:12:18.006Z,9.67
2023-01-26T12:17:47.207Z,10.67
2023-01-26T12:20:28.597Z,9.50
2023-01-26T12:23:01.853Z,9.17
2023-01-26T12:25:35.379Z,9.17
2023-01-26T12:30:59.890Z,8.53
2023-01-26T12:33:29.253Z,9.20
2023-01-26T12:36:18.054Z,8.80
2023-01-26T12:38:53.212Z,9.10
2023-01-26T12:41:28.319Z,9.07
2023-01-26T12:44:07.594Z,8.83
2023-01-26T12:46:39.698Z,8.83
2023-01-26T12:49:13.327Z,8.90
2023-01-26T12:51:44.364Z,8.50
2023-01-26T12:54:16.807Z,8.60
2023-01-26T12:56:48.929Z,9.53
2023-01-26T12:59:38.596Z,8.83
2023-01-26T13:02:21.270Z,9.37
2023-01-26T13:05:09.087Z,8.90
2023-01-26T13:07:38.977Z,9.03
2023-01-26T13:10:25.546Z,8.90
2023-01-26T13:13:29.971Z,9.20
2023-01-26T13:19:33.653Z,8.43
2023-01-26T13:22:05.948Z,9.13
2023-01-26T13:24:58.389Z,8.50
2023-01-26T13:27:35.041Z,8.37
2023-01-26T13:30:04.804Z,9.23
2023-01-26T13:32:54.788Z,9.33
2023-01-26T13:35:25.428Z,9.20
2023-01-26T13:37:59.421Z,9.07
2023-01-26T13:40:31.392Z,9.13
2023-01-26T13:43:07.651Z,8.60
2023-01-26T13:45:46.236Z,8.43
2023-01-26T13:48:18.666Z,9.57
2023-01-26T13:50:48.507Z,9.63
2023-01-26T13:53:36.088Z,8.97
2023-01-26T13:56:06.891Z,8.90
2023-01-26T13:58:54.372Z,8.83
2023-01-26T14:01:23.714Z,9.10
2023-01-26T14:04:04.306Z,8.73
2023-01-26T14:06:33.893Z,8.67
2023-01-26T14:11:57.648Z,9.17
2023-01-26T14:14:27.783Z,9.87
2023-01-26T14:16:56.864Z,8.97
2023-01-26T14:19:26.237Z,9.57
2023-01-26T14:21:56.357Z,8.97
2023-01-26T14:24:34.823Z,9.77
2023-01-26T14:27:04.532Z,10.70
2023-01-26T14:29:40.001Z,10.70
2023-01-26T14:32:16.195Z,8.83
2023-01-26T14:34:53.419Z,9.57
2023-01-26T14:37:24.499Z,9.33
2023-01-26T14:40:18.828Z,10.10
2023-01-26T14:42:48.185Z,9.43
2023-01-26T14:45:17.488Z,8.87
2023-01-26T14:47:46.741Z,10.00
2023-01-26T14:50:18.896Z,11.47
2023-01-26T14:52:49.327Z,9.10
2023-01-26T14:55:23.336Z,10.37
2023-01-26T14:57:54.149Z,10.07
2023-01-26T15:00:26.649Z,10.23
2023-01-26T15:02:56.643Z,9.90
2023-01-26T15:05:33.326Z,10.77
2023-01-26T15:08:03.143Z,10.33
2023-01-26T15:10:38.669Z,10.07
2023-01-26T15:13:08.934Z,10.30
2023-01-26T15:15:38.888Z,10.70
2023-01-26T15:18:19.151Z,11.37
2023-01-26T15:20:52.255Z,10.37
2023-01-26T15:23:23.593Z,10.33
2023-01-26T15:26:15.760Z,11.03
2023-01-26T15:31:54.141Z,9.60
2023-01-26T15:34:31.694Z,9.47
2023-01-26T15:37:01.145Z,9.73
2023-01-26T15:39:30.530Z,9.43
2023-01-26T15:42:17.187Z,9.77
2023-01-26T15:44:46.433Z,10.40
2023-01-26T15:47:15.728Z,10.33
2023-01-26T15:49:44.876Z,10.43
2023-01-26T15:55:22.873Z,11.37
2023-01-26T15:57:53.698Z,10.87
2023-01-26T16:00:23.879Z,12.13
2023-01-26T16:02:53.354Z,14.70
2023-01-26T16:05:25.422Z,16.27
2023-01-26T16:07:54.599Z,17.67
2023-01-26T16:10:23.773Z,17.07
2023-01-26T16:12:54.336Z,16.37
2023-01-26T16:15:30.824Z,18.17
2023-01-26T16:18:00.054Z,16.37
2023-01-26T16:20:29.353Z,17.23
2023-01-26T16:22:58.489Z,16.27
2023-01-26T16:25:28.633Z,19.00
2023-01-26T16:27:59.968Z,16.53
2023-01-26T16:30:29.191Z,15.33
2023-01-26T16:32:58.466Z,15.73
2023-01-26T16:35:29.161Z,16.90
2023-01-26T16:38:17.290Z,15.60
2023-01-26T16:40:49.443Z,14.17
2023-01-26T16:46:08.715Z,14.27
2023-01-26T16:48:38.077Z,15.03
2023-01-26T16:51:14.953Z,15.40
2023-01-26T16:56:30.579Z,15.00
2023-01-26T16:59:01.293Z,15.20
2023-01-26T17:01:33.348Z,15.70
2023-01-26T17:04:02.912Z,16.30
2023-01-26T17:06:32.544Z,15.13
2023-01-26T17:09:01.677Z,18.70
2023-01-26T17:11:31.122Z,16.27
2023-01-26T17:14:03.243Z,14.60
2023-01-26T17:16:33.376Z,13.57
2023-01-26T17:19:21.524Z,14.10
2023-01-26T17:22:09.276Z,13.40
2023-01-26T17:24:38.494Z,13.70
2023-01-26T17:27:07.610Z,13.60
2023-01-26T17:29:39.921Z,14.20
2023-01-26T17:32:27.876Z,15.47
2023-01-26T17:34:57.556Z,15.20
2023-01-26T17:37:29.351Z,14.90
2023-01-26T17:39:59.392Z,13.63
2023-01-26T17:42:29.158Z,12.83
2023-01-26T17:44:59.799Z,13.57
2023-01-26T17:47:28.923Z,15.20
2023-01-26T17:49:58.032Z,15.30
2023-01-26T17:52:27.346Z,16.03
2023-01-26T17:54:57.259Z,15.33
2023-01-26T17:57:26.435Z,17.17
2023-01-26T17:59:55.824Z,19.07
2023-01-26T18:02:26.588Z,19.73
2023-01-26T18:04:55.886Z,17.30
2023-01-26T18:10:13.660Z,12.90
2023-01-26T18:12:42.864Z,13.33
2023-01-26T18:15:30.246Z,14.80
2023-01-26T18:18:00.927Z,14.07
2023-01-26T18:20:30.116Z,15.60
2023-01-26T18:23:00.094Z,15.10
2023-01-26T18:25:29.296Z,14.77
2023-01-26T18:27:58.520Z,15.23
2023-01-26T18:30:27.738Z,16.17
2023-01-26T18:32:57.286Z,18.03
2023-01-26T18:35:27.851Z,16.73
2023-01-26T18:37:57.094Z,16.57
2023-01-26T18:40:26.242Z,15.50
2023-01-26T18:42:56.024Z,15.77
2023-01-26T18:45:25.443Z,15.67
2023-01-26T18:47:54.579Z,16.30
2023-01-26T18:50:23.807Z,14.87
2023-01-26T18:52:55.023Z,14.47
2023-01-26T18:55:24.214Z,15.97
2023-01-26T19:01:24.100Z,14.60
2023-01-26T19:03:56.056Z,13.57
2023-01-26T19:06:25.920Z,13.97
2023-01-26T19:08:58.678Z,15.97
2023-01-26T19:11:28.935Z,15.63
2023-01-26T19:13:58.159Z,15.83
2023-01-26T19:16:27.877Z,15.63
2023-01-26T19:18:57.243Z,14.27
2023-01-26T19:21:27.870Z,13.80
2023-01-26T19:26:49.089Z,14.00
2023-01-26T19:29:18.393Z,14.90
2023-01-26T19:31:47.898Z,19.47
2023-01-26T19:34:17.632Z,19.10
2023-01-26T19:40:10.622Z,14.23
2023-01-26T19:43:17.020Z,14.10
2023-01-26T19:45:53.285Z,14.53
2023-01-26T19:48:23.035Z,14.33
2023-01-26T19:51:03.230Z,14.27
2023-01-26T19:53:32.846Z,14.87
2023-01-26T19:56:02.115Z,14.67
2023-01-26T19:58:51.598Z,15.03
2023-01-26T20:01:22.622Z,19.07
2023-01-26T20:03:52.388Z,18.93
2023-01-26T20:06:22.537Z,19.30
2023-01-26T20:08:52.448Z,16.33
2023-01-26T20:11:25.441Z,16.20
2023-01-26T20:13:57.930Z,16.13
2023-01-26T20:16:29.371Z,16.60
2023-01-26T20:19:17.338Z,15.33
2023-01-26T20:21:46.676Z,16.00
2023-01-26T20:24:16.396Z,16.90
2023-01-26T20:26:45.766Z,15.30
2023-01-26T20:29:15.736Z,17.97
2023-01-26T20:31:46.493Z,17.07
2023-01-26T20:34:16.387Z,17.13
2023-01-26T20:36:45.778Z,18.97
2023-01-26T20:39:16.350Z,20.30
2023-01-26T20:41:45.606Z,19.97
2023-01-26T20:44:14.746Z,19.73
2023-01-26T20:46:44.249Z,22.07
2023-01-26T20:49:16.846Z,19.27
2023-01-26T20:51:46.457Z,15.63
2023-01-26T20:54:16.699Z,14.90
2023-01-26T20:56:47.095Z,15.13
2023-01-26T20:59:18.597Z,16.97
2023-01-26T21:01:47.917Z,19.10
2023-01-26T21:04:18.666Z,20.83
2023-01-26T21:06:47.814Z,19.90
2023-01-26T21:09:17.017Z,18.57
2023-01-26T21:11:46.242Z,17.23
2023-01-26T21:14:15.416Z,20.10
2023-01-26T21:16:45.133Z,20.70
2023-01-26T21:19:14.422Z,20.13
2023-01-26T21:21:45.126Z,22.20
2023-01-26T21:24:14.272Z,21.83
2023-01-26T21:26:43.543Z,20.10
2023-01-26T21:29:15.551Z,20.30
2023-01-26T21:34:32.067Z,19.70
2023-01-26T21:37:02.846Z,17.70
2023-01-26T21:39:32.087Z,18.60
2023-01-26T21:42:01.423Z,17.33
2023-01-26T21:44:31.281Z,17.20
2023-01-26T21:47:20.025Z,17.77
2023-01-26T21:49:50.214Z,18.67
2023-01-26T21:52:38.589Z,18.00
2023-01-26T21:55:08.127Z,18.93
2023-01-26T21:57:54.956Z,19.33
2023-01-26T22:00:24.324Z,18.03
2023-01-26T22:02:54.802Z,21.13
2023-01-26T22:05:23.992Z,18.47
2023-01-26T22:07:54.578Z,19.63
2023-01-26T22:10:23.795Z,19.03
2023-01-26T22:13:11.252Z,18.90
2023-01-26T22:15:40.554Z,21.10
2023-01-26T22:18:09.725Z,19.43
2023-01-26T22:20:39.511Z,29.03
2023-01-26T22:27:29.867Z,20.90
2023-01-26T22:30:00.217Z,17.73
2023-01-26T22:32:29.473Z,20.33
2023-01-26T22:34:58.258Z,19.00
2023-01-26T22:37:27.066Z,19.20
2023-01-26T22:39:55.771Z,17.73
2023-01-26T22:42:24.557Z,16.77
2023-01-26T22:44:53.372Z,17.63
2023-01-26T22:47:23.533Z,17.23
2023-01-26T22:49:52.400Z,17.60
2023-01-26T22:52:21.193Z,19.80
2023-01-26T22:54:49.950Z,28.20
2023-01-26T22:57:18.711Z,31.67
2023-01-26T22:59:47.500Z,23.83
2023-01-26T23:02:16.340Z,25.10
2023-01-26T23:04:46.490Z,24.00
2023-01-26T23:07:15.320Z,21.57
2023-01-26T23:09:44.105Z,30.10
2023-01-26T23:12:12.874Z,36.13
2023-01-26T23:14:41.693Z,36.07
2023-01-26T23:17:10.483Z,30.37
2023-01-26T23:19:39.279Z,25.03
2023-01-26T23:22:09.449Z,21.37
2023-01-26T23:24:38.229Z,19.57
2023-01-26T23:27:07.004Z,21.47
2023-01-26T23:29:35.813Z,20.33
2023-01-26T23:32:04.659Z,20.60
2023-01-26T23:34:33.451Z,21.60
2023-01-26T23:37:02.306Z,22.77
2023-01-26T23:39:32.472Z,24.40
2023-01-26T23:42:01.270Z,24.50
2023-01-26T23:44:30.024Z,26.83
2023-01-26T23:46:58.914Z,26.20
2023-01-26T23:49:27.733Z,23.27
2023-01-26T23:51:56.492Z,23.10
2023-01-26T23:54:25.352Z,20.00
2023-01-26T23:56:55.564Z,17.77
2023-01-26T23:59:24.394Z,17.57
